sensor_id;sensor_type;location;lat;lon;timestamp;pressure;altitude;pressure_sealevel;temperature;humidity
67931;BME280;63902;52.000;5.954;2022-12-07T00:00:54;101384.38;;;2.59;100.00
67931;BME280;63902;52.000;5.954;2022-12-07T00:01:54;101394.84;;;2.62;100.00
67931;BME280;63902;52.000;5.954;2022-12-07T00:02:55;101389.63;;;2.61;100.00
67931;BME280;63902;52.000;5.954;2022-12-07T00:03:58;101390.47;;;2.60;100.00
67931;BME280;63902;52.000;5.954;2022-12-07T00:04:59;101391.34;;;2.57;100.00
67931;BME280;63902;52.000;5.954;2022-12-07T00:06:00;101386.97;;;2.52;100.00
67931;BME280;63902;52.000;5.954;2022-12-07T00:07:01;101387.88;;;2.54;100.00
67931;BME280;63902;52.000;5.954;2022-12-07T00:08:02;101387.00;;;2.53;100.00
67931;BME280;63902;52.000;5.954;2022-12-07T00:09:03;101381.75;;;2.50;100.00
67931;BME280;63902;52.000;5.954;2022-12-07T00:10:05;101389.59;;;2.55;100.00
67931;BME280;63902;52.000;5.954;2022-12-07T00:11:07;101394.84;;;2.53;100.00
67931;BME280;63902;52.000;5.954;2022-12-07T00:12:07;101383.50;;;2.51;100.00
67931;BME280;63902;52.000;5.954;2022-12-07T00:13:08;101392.22;;;2.49;100.00
67931;BME280;63902;52.000;5.954;2022-12-07T00:14:11;101386.09;;;2.43;100.00
67931;BME280;63902;52.000;5.954;2022-12-07T00:15:13;101391.34;;;2.43;100.00
67931;BME280;63902;52.000;5.954;2022-12-07T00:16:15;101386.97;;;2.42;100.00
67931;BME280;63902;52.000;5.954;2022-12-07T00:17:16;101393.97;;;2.42;100.00
67931;BME280;63902;52.000;5.954;2022-12-07T00:18:16;101392.22;;;2.42;100.00
67931;BME280;63902;52.000;5.954;2022-12-07T00:19:16;101387.00;;;2.41;100.00
67931;BME280;63902;52.000;5.954;2022-12-07T00:20:17;101384.34;;;2.36;100.00
67931;BME280;63902;52.000;5.954;2022-12-07T00:21:19;101393.09;;;2.35;100.00
67931;BME280;63902;52.000;5.954;2022-12-07T00:22:19;101390.44;;;2.32;100.00
67931;BME280;63902;52.000;5.954;2022-12-07T00:23:20;101387.84;;;2.34;100.00
67931;BME280;63902;52.000;5.954;2022-12-07T00:24:20;101385.25;;;2.35;100.00
67931;BME280;63902;52.000;5.954;2022-12-07T00:25:21;101384.34;;;2.35;100.00
67931;BME280;63902;52.000;5.954;2022-12-07T00:26:23;101386.97;;;2.33;100.00
67931;BME280;63902;52.000;5.954;2022-12-07T00:27:24;101388.69;;;2.28;100.00
67931;BME280;63902;52.000;5.954;2022-12-07T00:28:24;101387.81;;;2.24;100.00
67931;BME280;63902;52.000;5.954;2022-12-07T00:29:25;101386.94;;;2.24;100.00
67931;BME280;63902;52.000;5.954;2022-12-07T00:30:26;101393.91;;;2.23;100.00
67931;BME280;63902;52.000;5.954;2022-12-07T00:31:29;101388.69;;;2.23;100.00
67931;BME280;63902;52.000;5.954;2022-12-07T00:32:30;101378.22;;;2.25;100.00
67931;BME280;63902;52.000;5.954;2022-12-07T00:33:30;101377.34;;;2.26;100.00
67931;BME280;63902;52.000;5.954;2022-12-07T00:34:31;101381.72;;;2.27;100.00
67931;BME280;63902;52.000;5.954;2022-12-07T00:35:31;101380.84;;;2.27;100.00
67931;BME280;63902;52.000;5.954;2022-12-07T00:36:32;101377.34;;;2.24;100.00
67931;BME280;63902;52.000;5.954;2022-12-07T00:37:33;101375.59;;;2.23;100.00
67931;BME280;63902;52.000;5.954;2022-12-07T00:38:35;101380.81;;;2.20;100.00
67931;BME280;63902;52.000;5.954;2022-12-07T00:39:35;101378.22;;;2.19;100.00
67931;BME280;63902;52.000;5.954;2022-12-07T00:40:36;101365.13;;;2.11;100.00
67931;BME280;63902;52.000;5.954;2022-12-07T00:41:36;101366.84;;;2.15;100.00
67931;BME280;63902;52.000;5.954;2022-12-07T00:42:37;101365.97;;;2.09;100.00
67931;BME280;63902;52.000;5.954;2022-12-07T00:43:38;101369.47;;;2.14;100.00
67931;BME280;63902;52.000;5.954;2022-12-07T00:44:39;101374.72;;;2.14;100.00
67931;BME280;63902;52.000;5.954;2022-12-07T00:45:41;101367.72;;;2.13;100.00
67931;BME280;63902;52.000;5.954;2022-12-07T00:46:41;101373.84;;;2.15;100.00
67931;BME280;63902;52.000;5.954;2022-12-07T00:47:41;101368.63;;;2.13;100.00
67931;BME280;63902;52.000;5.954;2022-12-07T00:48:42;101368.59;;;2.10;100.00
67931;BME280;63902;52.000;5.954;2022-12-07T00:49:43;101372.94;;;2.10;100.00
67931;BME280;63902;52.000;5.954;2022-12-07T00:50:43;101376.47;;;2.10;100.00
67931;BME280;63902;52.000;5.954;2022-12-07T00:51:44;101372.06;;;2.09;100.00
67931;BME280;63902;52.000;5.954;2022-12-07T00:52:44;101367.69;;;2.04;100.00
67931;BME280;63902;52.000;5.954;2022-12-07T00:53:45;101365.09;;;2.02;100.00
67931;BME280;63902;52.000;5.954;2022-12-07T00:54:46;101361.59;;;2.00;100.00
67931;BME280;63902;52.000;5.954;2022-12-07T00:55:46;101357.22;;;1.91;100.00
67931;BME280;63902;52.000;5.954;2022-12-07T00:56:47;101358.09;;;1.92;100.00
67931;BME280;63902;52.000;5.954;2022-12-07T00:57:47;101356.34;;;1.88;100.00
67931;BME280;63902;52.000;5.954;2022-12-07T00:58:52;101363.31;;;1.92;100.00
67931;BME280;63902;52.000;5.954;2022-12-07T00:59:52;101364.16;;;1.89;100.00
67931;BME280;63902;52.000;5.954;2022-12-07T01:00:59;101360.66;;;1.87;100.00
67931;BME280;63902;52.000;5.954;2022-12-07T01:02:00;101363.28;;;1.83;100.00
67931;BME280;63902;52.000;5.954;2022-12-07T01:03:00;101352.81;;;1.78;100.00
67931;BME280;63902;52.000;5.954;2022-12-07T01:04:01;101356.28;;;1.78;100.00
67931;BME280;63902;52.000;5.954;2022-12-07T01:05:02;101360.66;;;1.78;100.00
67931;BME280;63902;52.000;5.954;2022-12-07T01:06:03;101365.00;;;1.77;100.00
67931;BME280;63902;52.000;5.954;2022-12-07T01:07:04;101364.13;;;1.77;100.00
67931;BME280;63902;52.000;5.954;2022-12-07T01:08:05;101355.41;;;1.75;100.00
67931;BME280;63902;52.000;5.954;2022-12-07T01:09:06;101358.00;;;1.72;100.00
67931;BME280;63902;52.000;5.954;2022-12-07T01:10:07;101361.50;;;1.72;100.00
67931;BME280;63902;52.000;5.954;2022-12-07T01:11:11;101362.38;;;1.73;100.00
67931;BME280;63902;52.000;5.954;2022-12-07T01:12:12;101366.75;;;1.75;100.00
67931;BME280;63902;52.000;5.954;2022-12-07T01:13:12;101354.56;;;1.77;100.00
67931;BME280;63902;52.000;5.954;2022-12-07T01:14:13;101344.94;;;1.72;100.00
67931;BME280;63902;52.000;5.954;2022-12-07T01:15:13;101361.50;;;1.78;100.00
67931;BME280;63902;52.000;5.954;2022-12-07T01:16:16;101359.75;;;1.79;100.00
67931;BME280;63902;52.000;5.954;2022-12-07T01:17:17;101364.16;;;1.80;100.00
67931;BME280;63902;52.000;5.954;2022-12-07T01:18:17;101357.16;;;1.79;100.00
67931;BME280;63902;52.000;5.954;2022-12-07T01:19:18;101365.00;;;1.79;100.00
67931;BME280;63902;52.000;5.954;2022-12-07T01:20:18;101365.88;;;1.78;100.00
67931;BME280;63902;52.000;5.954;2022-12-07T01:21:20;101366.75;;;1.75;100.00
67931;BME280;63902;52.000;5.954;2022-12-07T01:22:21;101371.09;;;1.72;100.00
67931;BME280;63902;52.000;5.954;2022-12-07T01:23:22;101364.13;;;1.72;100.00
67931;BME280;63902;52.000;5.954;2022-12-07T01:24:22;101363.22;;;1.70;100.00
67931;BME280;63902;52.000;5.954;2022-12-07T01:25:23;101368.44;;;1.70;100.00
67931;BME280;63902;52.000;5.954;2022-12-07T01:26:24;101371.06;;;1.69;100.00
67931;BME280;63902;52.000;5.954;2022-12-07T01:27:27;101353.59;;;1.59;100.00
67931;BME280;63902;52.000;5.954;2022-12-07T01:28:28;101370.19;;;1.64;100.00
67931;BME280;63902;52.000;5.954;2022-12-07T01:29:29;101374.53;;;1.68;100.00
67931;BME280;63902;52.000;5.954;2022-12-07T01:30:29;101377.19;;;1.72;100.00
67931;BME280;63902;52.000;5.954;2022-12-07T01:31:31;101378.06;;;1.73;100.00
67931;BME280;63902;52.000;5.954;2022-12-07T01:32:32;101377.19;;;1.72;100.00
67931;BME280;63902;52.000;5.954;2022-12-07T01:33:34;101372.81;;;1.73;100.00
67931;BME280;63902;52.000;5.954;2022-12-07T01:34:35;101379.81;;;1.74;100.00
67931;BME280;63902;52.000;5.954;2022-12-07T01:35:36;101373.69;;;1.73;100.00
67931;BME280;63902;52.000;5.954;2022-12-07T01:36:36;101371.97;;;1.72;100.00
67931;BME280;63902;52.000;5.954;2022-12-07T01:37:37;101370.22;;;1.71;100.00
67931;BME280;63902;52.000;5.954;2022-12-07T01:38:38;101369.31;;;1.71;100.00
67931;BME280;63902;52.000;5.954;2022-12-07T01:39:39;101370.22;;;1.68;100.00
67931;BME280;63902;52.000;5.954;2022-12-07T01:40:39;101373.69;;;1.69;100.00
67931;BME280;63902;52.000;5.954;2022-12-07T01:41:40;101374.53;;;1.68;100.00
67931;BME280;63902;52.000;5.954;2022-12-07T01:42:41;101374.53;;;1.68;100.00
67931;BME280;63902;52.000;5.954;2022-12-07T01:44:07;101369.31;;;1.65;100.00
67931;BME280;63902;52.000;5.954;2022-12-07T01:45:37;101371.94;;;1.63;100.00
67931;BME280;63902;52.000;5.954;2022-12-07T01:46:40;101368.44;;;1.63;100.00
67931;BME280;63902;52.000;5.954;2022-12-07T01:47:42;101365.81;;;1.63;100.00
67931;BME280;63902;52.000;5.954;2022-12-07T01:48:43;101377.16;;;1.60;100.00
67931;BME280;63902;52.000;5.954;2022-12-07T01:49:46;101368.41;;;1.58;100.00
67931;BME280;63902;52.000;5.954;2022-12-07T01:50:50;101372.78;;;1.58;100.00
67931;BME280;63902;52.000;5.954;2022-12-07T01:51:55;101365.78;;;1.56;100.00
67931;BME280;63902;52.000;5.954;2022-12-07T01:52:59;101364.91;;;1.54;100.00
67931;BME280;63902;52.000;5.954;2022-12-07T01:54:01;101362.28;;;1.51;100.00
67931;BME280;63902;52.000;5.954;2022-12-07T01:55:04;101366.63;;;1.49;100.00
67931;BME280;63902;52.000;5.954;2022-12-07T01:56:08;101363.97;;;1.45;100.00
67931;BME280;63902;52.000;5.954;2022-12-07T01:57:11;101363.09;;;1.43;100.00
67931;BME280;63902;52.000;5.954;2022-12-07T01:58:14;101360.50;;;1.41;100.00
67931;BME280;63902;52.000;5.954;2022-12-07T01:59:17;101355.28;;;1.44;100.00
67931;BME280;63902;52.000;5.954;2022-12-07T02:00:19;101365.69;;;1.43;100.00
67931;BME280;63902;52.000;5.954;2022-12-07T02:01:20;101364.84;;;1.38;100.00
67931;BME280;63902;52.000;5.954;2022-12-07T02:02:26;101363.94;;;1.36;100.00
67931;BME280;63902;52.000;5.954;2022-12-07T02:03:32;101361.34;;;1.36;100.00
67931;BME280;63902;52.000;5.954;2022-12-07T02:04:35;101364.81;;;1.36;100.00
67931;BME280;63902;52.000;5.954;2022-12-07T02:05:38;101361.38;;;1.40;100.00
67931;BME280;63902;52.000;5.954;2022-12-07T02:06:41;101366.59;;;1.42;100.00
67931;BME280;63902;52.000;5.954;2022-12-07T02:07:43;101365.72;;;1.41;100.00
67931;BME280;63902;52.000;5.954;2022-12-07T02:08:46;101358.72;;;1.37;100.00
67931;BME280;63902;52.000;5.954;2022-12-07T02:09:47;101352.63;;;1.40;100.00
67931;BME280;63902;52.000;5.954;2022-12-07T02:10:47;101354.41;;;1.41;100.00
67931;BME280;63902;52.000;5.954;2022-12-07T02:11:48;101347.38;;;1.37;100.00
67931;BME280;63902;52.000;5.954;2022-12-07T02:12:50;101353.44;;;1.31;100.00
67931;BME280;63902;52.000;5.954;2022-12-07T02:13:52;101354.34;;;1.30;100.00
67931;BME280;63902;52.000;5.954;2022-12-07T02:14:52;101351.69;;;1.27;100.00
67931;BME280;63902;52.000;5.954;2022-12-07T02:16:08;101349.94;;;1.26;100.00
67931;BME280;63902;52.000;5.954;2022-12-07T02:17:20;101352.56;;;1.26;100.00
67931;BME280;63902;52.000;5.954;2022-12-07T02:18:38;101349.06;;;1.22;100.00
67931;BME280;63902;52.000;5.954;2022-12-07T02:20:06;101355.13;;;1.20;100.00
67931;BME280;63902;52.000;5.954;2022-12-07T02:21:12;101354.25;;;1.19;100.00
67931;BME280;63902;52.000;5.954;2022-12-07T02:22:29;101353.38;;;1.16;100.00
67931;BME280;63902;52.000;5.954;2022-12-07T02:23:49;101354.22;;;1.15;100.00
67931;BME280;63902;52.000;5.954;2022-12-07T02:25:04;101354.22;;;1.15;100.00
67931;BME280;63902;52.000;5.954;2022-12-07T02:27:45;101349.91;;;1.17;100.00
67931;BME280;63902;52.000;5.954;2022-12-07T02:29:00;101351.63;;;1.15;100.00
67931;BME280;63902;52.000;5.954;2022-12-07T02:30:08;101354.28;;;1.18;100.00
67931;BME280;63902;52.000;5.954;2022-12-07T02:31:15;101357.72;;;1.17;100.00
67931;BME280;63902;52.000;5.954;2022-12-07T02:32:24;101362.94;;;1.14;100.00
67931;BME280;63902;52.000;5.954;2022-12-07T02:33:28;101367.28;;;1.11;100.00
67931;BME280;63902;52.000;5.954;2022-12-07T02:34:39;101360.31;;;1.14;100.00
67931;BME280;63902;52.000;5.954;2022-12-07T02:35:44;101363.81;;;1.14;100.00
67931;BME280;63902;52.000;5.954;2022-12-07T02:36:52;101360.31;;;1.12;100.00
67931;BME280;63902;52.000;5.954;2022-12-07T02:37:59;101355.06;;;1.07;100.00
67931;BME280;63902;52.000;5.954;2022-12-07T02:39:08;101364.66;;;1.10;100.00
67931;BME280;63902;52.000;5.954;2022-12-07T02:40:15;101362.06;;;1.10;100.00
67931;BME280;63902;52.000;5.954;2022-12-07T02:41:22;101358.56;;;1.08;100.00
67931;BME280;63902;52.000;5.954;2022-12-07T02:42:32;101367.25;;;1.07;100.00
67931;BME280;63902;52.000;5.954;2022-12-07T02:43:38;101364.63;;;1.05;100.00
67931;BME280;63902;52.000;5.954;2022-12-07T02:44:41;101365.53;;;1.10;100.00
67931;BME280;63902;52.000;5.954;2022-12-07T02:45:44;101355.09;;;1.10;100.00
67931;BME280;63902;52.000;5.954;2022-12-07T02:46:50;101362.91;;;1.10;100.00
67931;BME280;63902;52.000;5.954;2022-12-07T02:47:56;101359.44;;;1.10;100.00
67931;BME280;63902;52.000;5.954;2022-12-07T02:50:18;101359.44;;;1.07;100.00
67931;BME280;63902;52.000;5.954;2022-12-07T02:51:19;101355.06;;;1.04;100.00
67931;BME280;63902;52.000;5.954;2022-12-07T02:52:19;101345.44;;;1.00;100.00
67931;BME280;63902;52.000;5.954;2022-12-07T02:53:33;101353.25;;;0.97;100.00
67931;BME280;63902;52.000;5.954;2022-12-07T02:54:34;101355.88;;;0.96;100.00
67931;BME280;63902;52.000;5.954;2022-12-07T02:55:38;101353.25;;;0.93;100.00
67931;BME280;63902;52.000;5.954;2022-12-07T02:56:46;101358.47;;;0.94;100.00
67931;BME280;63902;52.000;5.954;2022-12-07T02:58:06;101353.22;;;0.94;100.00
67931;BME280;63902;52.000;5.954;2022-12-07T02:59:17;101355.81;;;0.89;100.00
67931;BME280;63902;52.000;5.954;2022-12-07T03:00:25;101353.19;;;0.88;100.00
67931;BME280;63902;52.000;5.954;2022-12-07T03:01:31;101351.47;;;0.90;100.00
67931;BME280;63902;52.000;5.954;2022-12-07T03:02:40;101355.81;;;0.88;100.00
67931;BME280;63902;52.000;5.954;2022-12-07T03:03:49;101358.41;;;0.85;100.00
67931;BME280;63902;52.000;5.954;2022-12-07T03:05:02;101354.06;;;0.87;100.00
67931;BME280;63902;52.000;5.954;2022-12-07T03:06:14;101354.06;;;0.88;100.00
67931;BME280;63902;52.000;5.954;2022-12-07T03:07:26;101363.63;;;0.88;100.00
67931;BME280;63902;52.000;5.954;2022-12-07T03:08:36;101358.41;;;0.88;100.00
67931;BME280;63902;52.000;5.954;2022-12-07T03:09:41;101352.31;;;0.89;100.00
67931;BME280;63902;52.000;5.954;2022-12-07T03:10:50;101357.56;;;0.95;100.00
67931;BME280;63902;52.000;5.954;2022-12-07T03:12:00;101360.19;;;0.94;100.00
67931;BME280;63902;52.000;5.954;2022-12-07T03:13:04;101360.19;;;0.94;100.00
67931;BME280;63902;52.000;5.954;2022-12-07T03:14:11;101361.06;;;0.94;100.00
67931;BME280;63902;52.000;5.954;2022-12-07T03:15:16;101359.31;;;0.95;100.00
67931;BME280;63902;52.000;5.954;2022-12-07T03:16:23;101362.81;;;0.95;100.00
67931;BME280;63902;52.000;5.954;2022-12-07T03:17:27;101360.25;;;0.98;100.00
67931;BME280;63902;52.000;5.954;2022-12-07T03:18:34;101357.66;;;1.04;100.00
67931;BME280;63902;52.000;5.954;2022-12-07T03:19:36;101363.75;;;1.06;100.00
67931;BME280;63902;52.000;5.954;2022-12-07T03:20:39;101368.13;;;1.07;100.00
67931;BME280;63902;52.000;5.954;2022-12-07T03:21:44;101363.78;;;1.08;100.00
67931;BME280;63902;52.000;5.954;2022-12-07T03:22:47;101365.53;;;1.10;100.00
67931;BME280;63902;52.000;5.954;2022-12-07T03:23:51;101359.44;;;1.10;100.00
67931;BME280;63902;52.000;5.954;2022-12-07T03:24:56;101352.47;;;1.10;100.00
67931;BME280;63902;52.000;5.954;2022-12-07T03:26:00;101351.63;;;1.15;100.00
67931;BME280;63902;52.000;5.954;2022-12-07T03:27:03;101359.50;;;1.21;100.00
67931;BME280;63902;52.000;5.954;2022-12-07T03:28:06;101356.88;;;1.22;100.00
67931;BME280;63902;52.000;5.954;2022-12-07T03:29:11;101352.56;;;1.26;100.00
67931;BME280;63902;52.000;5.954;2022-12-07T03:30:17;101349.06;;;1.25;100.00
67931;BME280;63902;52.000;5.954;2022-12-07T03:31:22;101357.81;;;1.27;100.00
67931;BME280;63902;52.000;5.954;2022-12-07T03:32:27;101352.56;;;1.27;100.00
67931;BME280;63902;52.000;5.954;2022-12-07T03:33:34;101352.59;;;1.29;100.00
67931;BME280;63902;52.000;5.954;2022-12-07T03:34:44;101355.16;;;1.26;100.00
67931;BME280;63902;52.000;5.954;2022-12-07T03:35:51;101355.19;;;1.30;100.00
67931;BME280;63902;52.000;5.954;2022-12-07T03:36:56;101345.63;;;1.32;100.00
67931;BME280;63902;52.000;5.954;2022-12-07T03:38:04;101339.53;;;1.32;100.00
67931;BME280;63902;52.000;5.954;2022-12-07T03:39:13;101336.91;;;1.33;100.00
67931;BME280;63902;52.000;5.954;2022-12-07T03:40:22;101336.06;;;1.33;100.00
67931;BME280;63902;52.000;5.954;2022-12-07T03:41:27;101336.91;;;1.33;100.00
67931;BME280;63902;52.000;5.954;2022-12-07T03:42:28;101334.31;;;1.35;100.00
67931;BME280;63902;52.000;5.954;2022-12-07T03:43:30;101333.44;;;1.36;100.00
67931;BME280;63902;52.000;5.954;2022-12-07T03:44:31;101336.91;;;1.33;100.00
67931;BME280;63902;52.000;5.954;2022-12-07T03:45:37;101330.81;;;1.33;100.00
67931;BME280;63902;52.000;5.954;2022-12-07T03:46:44;101333.44;;;1.33;100.00
67931;BME280;63902;52.000;5.954;2022-12-07T03:47:48;101333.41;;;1.31;100.00
67931;BME280;63902;52.000;5.954;2022-12-07T03:48:56;101338.69;;;1.34;100.00
67931;BME280;63902;52.000;5.954;2022-12-07T03:50:02;101327.34;;;1.34;100.00
67931;BME280;63902;52.000;5.954;2022-12-07T03:51:13;101329.06;;;1.33;100.00
67931;BME280;63902;52.000;5.954;2022-12-07T03:52:20;101330.81;;;1.33;100.00
67931;BME280;63902;52.000;5.954;2022-12-07T03:53:27;101332.56;;;1.34;100.00
67931;BME280;63902;52.000;5.954;2022-12-07T03:54:34;101333.44;;;1.33;100.00
67931;BME280;63902;52.000;5.954;2022-12-07T03:55:39;101334.31;;;1.35;100.00
67931;BME280;63902;52.000;5.954;2022-12-07T03:56:43;101336.06;;;1.34;100.00
67931;BME280;63902;52.000;5.954;2022-12-07T03:57:47;101330.84;;;1.36;100.00
67931;BME280;63902;52.000;5.954;2022-12-07T03:58:49;101331.69;;;1.37;100.00
67931;BME280;63902;52.000;5.954;2022-12-07T03:59:51;101334.34;;;1.38;100.00
67931;BME280;63902;52.000;5.954;2022-12-07T04:00:52;101335.22;;;1.42;100.00
67931;BME280;63902;52.000;5.954;2022-12-07T04:01:55;101336.97;;;1.43;100.00
67931;BME280;63902;52.000;5.954;2022-12-07T04:02:56;101336.97;;;1.43;100.00
67931;BME280;63902;52.000;5.954;2022-12-07T04:03:56;101327.41;;;1.43;100.00
67931;BME280;63902;52.000;5.954;2022-12-07T04:04:57;101338.72;;;1.47;100.00
67931;BME280;63902;52.000;5.954;2022-12-07T04:05:58;101334.41;;;1.49;100.00
67931;BME280;63902;52.000;5.954;2022-12-07T04:06:59;101338.75;;;1.51;100.00
67931;BME280;63902;52.000;5.954;2022-12-07T04:07:59;101335.25;;;1.54;100.00
67931;BME280;63902;52.000;5.954;2022-12-07T04:09:00;101333.56;;;1.54;100.00
67931;BME280;63902;52.000;5.954;2022-12-07T04:10:00;101334.41;;;1.55;100.00
67931;BME280;63902;52.000;5.954;2022-12-07T04:11:01;101330.06;;;1.55;100.00
67931;BME280;63902;52.000;5.954;2022-12-07T04:12:01;101337.88;;;1.54;100.00
67931;BME280;63902;52.000;5.954;2022-12-07T04:13:02;101334.41;;;1.53;100.00
67931;BME280;63902;52.000;5.954;2022-12-07T04:14:02;101331.78;;;1.50;100.00
67931;BME280;63902;52.000;5.954;2022-12-07T04:15:03;101328.28;;;1.48;100.00
67931;BME280;63902;52.000;5.954;2022-12-07T04:16:04;101333.47;;;1.45;100.00
67931;BME280;63902;52.000;5.954;2022-12-07T04:17:06;101334.38;;;1.44;100.00
67931;BME280;63902;52.000;5.954;2022-12-07T04:18:06;101332.63;;;1.43;100.00
67931;BME280;63902;52.000;5.954;2022-12-07T04:19:07;101328.25;;;1.45;100.00
67931;BME280;63902;52.000;5.954;2022-12-07T04:20:08;101330.88;;;1.48;100.00
67931;BME280;63902;52.000;5.954;2022-12-07T04:21:09;101325.66;;;1.48;100.00
67931;BME280;63902;52.000;5.954;2022-12-07T04:22:10;101327.41;;;1.49;100.00
67931;BME280;63902;52.000;5.954;2022-12-07T04:23:10;101330.88;;;1.48;100.00
67931;BME280;63902;52.000;5.954;2022-12-07T04:24:12;101327.41;;;1.48;100.00
67931;BME280;63902;52.000;5.954;2022-12-07T04:25:12;101330.00;;;1.45;100.00
67931;BME280;63902;52.000;5.954;2022-12-07T04:26:13;101329.13;;;1.43;100.00
67931;BME280;63902;52.000;5.954;2022-12-07T04:27:13;101335.22;;;1.40;100.00
67931;BME280;63902;52.000;5.954;2022-12-07T04:28:14;101335.22;;;1.42;100.00
67931;BME280;63902;52.000;5.954;2022-12-07T04:29:15;101331.72;;;1.38;100.00
67931;BME280;63902;52.000;5.954;2022-12-07T04:30:16;101336.06;;;1.36;100.00
67931;BME280;63902;52.000;5.954;2022-12-07T04:31:17;101332.56;;;1.34;100.00
67931;BME280;63902;52.000;5.954;2022-12-07T04:32:19;101335.19;;;1.32;100.00
67931;BME280;63902;52.000;5.954;2022-12-07T04:33:19;101336.94;;;1.32;100.00
67931;BME280;63902;52.000;5.954;2022-12-07T04:34:20;101331.72;;;1.35;100.00
67931;BME280;63902;52.000;5.954;2022-12-07T04:35:20;101340.41;;;1.37;100.00
67931;BME280;63902;52.000;5.954;2022-12-07T04:36:21;101336.06;;;1.36;100.00
67931;BME280;63902;52.000;5.954;2022-12-07T04:37:21;101329.97;;;1.32;100.00
67931;BME280;63902;52.000;5.954;2022-12-07T04:38:22;101336.03;;;1.30;100.00
67931;BME280;63902;52.000;5.954;2022-12-07T04:39:24;101336.91;;;1.29;100.00
67931;BME280;63902;52.000;5.954;2022-12-07T04:40:25;101327.31;;;1.31;100.00
67931;BME280;63902;52.000;5.954;2022-12-07T04:41:26;101325.59;;;1.33;100.00
67931;BME280;63902;52.000;5.954;2022-12-07T04:42:26;101331.72;;;1.35;100.00
67931;BME280;63902;52.000;5.954;2022-12-07T04:43:27;101328.22;;;1.34;100.00
67931;BME280;63902;52.000;5.954;2022-12-07T04:44:28;101328.22;;;1.33;100.00
67931;BME280;63902;52.000;5.954;2022-12-07T04:45:28;101330.81;;;1.33;100.00
67931;BME280;63902;52.000;5.954;2022-12-07T04:46:30;101319.50;;;1.32;100.00
67931;BME280;63902;52.000;5.954;2022-12-07T04:47:33;101316.03;;;1.35;100.00
67931;BME280;63902;52.000;5.954;2022-12-07T04:48:33;101320.41;;;1.39;100.00
67931;BME280;63902;52.000;5.954;2022-12-07T04:49:34;101320.41;;;1.38;100.00
67931;BME280;63902;52.000;5.954;2022-12-07T04:50:35;101325.66;;;1.45;100.00
67931;BME280;63902;52.000;5.954;2022-12-07T04:51:36;101324.78;;;1.51;100.00
67931;BME280;63902;52.000;5.954;2022-12-07T04:52:36;101325.69;;;1.54;100.00
67931;BME280;63902;52.000;5.954;2022-12-07T04:53:37;101317.84;;;1.56;100.00
67931;BME280;63902;52.000;5.954;2022-12-07T04:54:37;101326.56;;;1.60;100.00
67931;BME280;63902;52.000;5.954;2022-12-07T04:55:37;101326.56;;;1.60;100.00
67931;BME280;63902;52.000;5.954;2022-12-07T04:56:38;101329.19;;;1.60;100.00
67931;BME280;63902;52.000;5.954;2022-12-07T04:57:39;101328.34;;;1.61;100.00
67931;BME280;63902;52.000;5.954;2022-12-07T04:58:40;101323.09;;;1.62;100.00
67931;BME280;63902;52.000;5.954;2022-12-07T04:59:40;101317.03;;;1.63;100.00
67931;BME280;63902;52.000;5.954;2022-12-07T05:00:41;101323.13;;;1.64;100.00
67931;BME280;63902;52.000;5.954;2022-12-07T05:01:41;101321.38;;;1.63;100.00
67931;BME280;63902;52.000;5.954;2022-12-07T05:02:43;101324.84;;;1.62;100.00
67931;BME280;63902;52.000;5.954;2022-12-07T05:03:44;101320.50;;;1.64;100.00
67931;BME280;63902;52.000;5.954;2022-12-07T05:04:45;101324.00;;;1.66;100.00
67931;BME280;63902;52.000;5.954;2022-12-07T05:05:45;101322.25;;;1.66;100.00
67931;BME280;63902;52.000;5.954;2022-12-07T05:06:46;101312.63;;;1.62;100.00
67931;BME280;63902;52.000;5.954;2022-12-07T05:07:46;101313.53;;;1.63;100.00
67931;BME280;63902;52.000;5.954;2022-12-07T05:08:47;101320.47;;;1.62;100.00
67931;BME280;63902;52.000;5.954;2022-12-07T05:09:47;101316.16;;;1.63;100.00
67931;BME280;63902;52.000;5.954;2022-12-07T05:10:48;101310.88;;;1.60;100.00
67931;BME280;63902;52.000;5.954;2022-12-07T05:11:50;101316.16;;;1.63;100.00
67931;BME280;63902;52.000;5.954;2022-12-07T05:12:50;101315.25;;;1.61;100.00
67931;BME280;63902;52.000;5.954;2022-12-07T05:13:51;101312.63;;;1.59;100.00
67931;BME280;63902;52.000;5.954;2022-12-07T05:14:52;101311.75;;;1.55;100.00
67931;BME280;63902;52.000;5.954;2022-12-07T05:15:52;101309.13;;;1.55;100.00
67931;BME280;63902;52.000;5.954;2022-12-07T05:16:52;101315.25;;;1.54;100.00
67931;BME280;63902;52.000;5.954;2022-12-07T05:17:54;101313.50;;;1.52;100.00
67931;BME280;63902;52.000;5.954;2022-12-07T05:18:55;101309.97;;;1.45;100.00
67931;BME280;63902;52.000;5.954;2022-12-07T05:19:55;101313.44;;;1.43;100.00
67931;BME280;63902;52.000;5.954;2022-12-07T05:20:56;101316.94;;;1.40;100.00
67931;BME280;63902;52.000;5.954;2022-12-07T05:21:56;101320.41;;;1.39;100.00
67931;BME280;63902;52.000;5.954;2022-12-07T05:22:57;101318.66;;;1.35;100.00
67931;BME280;63902;52.000;5.954;2022-12-07T05:23:57;101319.50;;;1.32;100.00
67931;BME280;63902;52.000;5.954;2022-12-07T05:24:58;101315.13;;;1.30;100.00
67931;BME280;63902;52.000;5.954;2022-12-07T05:25:58;101314.25;;;1.31;100.00
67931;BME280;63902;52.000;5.954;2022-12-07T05:26:59;101319.47;;;1.31;100.00
67931;BME280;63902;52.000;5.954;2022-12-07T05:27:59;101312.50;;;1.28;100.00
67931;BME280;63902;52.000;5.954;2022-12-07T05:29:00;101309.88;;;1.25;100.00
67931;BME280;63902;52.000;5.954;2022-12-07T05:30:00;101309.88;;;1.21;100.00
67931;BME280;63902;52.000;5.954;2022-12-07T05:31:01;101315.09;;;1.18;100.00
67931;BME280;63902;52.000;5.954;2022-12-07T05:32:01;101316.78;;;1.17;100.00
67931;BME280;63902;52.000;5.954;2022-12-07T05:33:03;101314.19;;;1.16;100.00